Aérodrome :







RETROUVEZ-NOUS SUR...

 
LOGIN :

S'inscrire | Disclaimer

   EN    FR    IT 

 









Légende :    VFR   VFR Marginal   IFR   IFR Intensif   IFR Très Intensif
Visi : 
Plafond : 
>= 8 km
>= 3000ft
5 à 8 km
1000 à 3000 ft
1500m à 5 km
500 à 1000 ft
800 à 1500m
200 à 500 ft
< 800m
< 200 ft
Symboles :   Orages  Brouillard  Fortes neiges  Fortes précipitations  Vent > 20 kt






- Altitude de l'aérodrome : 271 ft


KBAF - Barnes Municipal

DERNIER METAR :
  • 151653Z 00000KT 10SM OVC050 24/16 A3021 RMK AO2 SLP226 T02390161

METARs EXPIRÉS :
  • 151553Z VRB03KT 10SM OVC049 23/16 A3020 RMK AO2 SLP226 T02280161
  • 151453Z 00000KT 10SM FEW028 BKN035 BKN049 23/16 A3019 RMK AO2 SLP220 T02280161 58001

TAF KBAF
Valide du 15 à 12h jusqu'au 16 à 12h UTC


151120Z 1512/1612 02005KT P6SM BKN025
FM151300 03005KT P6SM BKN035
FM151600 05003KT P6SM BKN050
FM152100 09003KT P6SM BKN050
FM160300 15004KT P6SM BKN035
FIR KZBW / Amérique du Nord



MET'MAP, la Météo Aéronautique d'un coup d'oeil ! - Copyright ORBIFLY Décembre 2007 - Disclaimer

ORBIFLY MET'MAP TEAM :

Programmation & Développement : Alexandra Zaïnal
Sur une idée originale de : Baudouin d'Aumeries
Assistance à la programmation : Marc-Olivier Méhu
Soutien technique & logistique : Manuel Goepfert

Contact : metmap@orbifly.com




SOURCES & CREDITS :

   NOAA